sensor_id;sensor_type;location;lat;lon;timestamp;P1;durP1;ratioP1;P2;durP2;ratioP2
37847;SDS011;23688;33.130;-117.188;2023-03-14T00:00:17;12.50;;;5.97;;
37847;SDS011;23688;33.130;-117.188;2023-03-14T00:02:43;10.98;;;4.85;;
37847;SDS011;23688;33.130;-117.188;2023-03-14T00:05:11;9.45;;;5.45;;
37847;SDS011;23688;33.130;-117.188;2023-03-14T00:07:38;11.77;;;5.75;;
37847;SDS011;23688;33.130;-117.188;2023-03-14T00:10:07;13.07;;;5.72;;
37847;SDS011;23688;33.130;-117.188;2023-03-14T00:12:39;9.93;;;5.25;;
37847;SDS011;23688;33.130;-117.188;2023-03-14T00:15:06;11.98;;;6.13;;
37847;SDS011;23688;33.130;-117.188;2023-03-14T00:17:34;14.05;;;5.68;;
37847;SDS011;23688;33.130;-117.188;2023-03-14T00:20:01;15.15;;;6.82;;
37847;SDS011;23688;33.130;-117.188;2023-03-14T00:22:39;11.00;;;6.65;;
37847;SDS011;23688;33.130;-117.188;2023-03-14T00:25:07;13.50;;;6.07;;
37847;SDS011;23688;33.130;-117.188;2023-03-14T00:27:35;15.80;;;6.60;;
37847;SDS011;23688;33.130;-117.188;2023-03-14T00:30:02;11.77;;;6.03;;
37847;SDS011;23688;33.130;-117.188;2023-03-14T00:32:29;9.95;;;6.43;;
37847;SDS011;23688;33.130;-117.188;2023-03-14T00:34:55;17.17;;;6.45;;
37847;SDS011;23688;33.130;-117.188;2023-03-14T00:37:22;13.77;;;6.82;;
37847;SDS011;23688;33.130;-117.188;2023-03-14T00:39:48;15.38;;;6.43;;
37847;SDS011;23688;33.130;-117.188;2023-03-14T00:42:16;18.48;;;7.65;;
37847;SDS011;23688;33.130;-117.188;2023-03-14T00:44:44;16.38;;;6.75;;
37847;SDS011;23688;33.130;-117.188;2023-03-14T00:47:10;22.83;;;7.75;;
37847;SDS011;23688;33.130;-117.188;2023-03-14T00:49:36;20.70;;;8.23;;
37847;SDS011;23688;33.130;-117.188;2023-03-14T00:52:03;19.80;;;7.68;;
37847;SDS011;23688;33.130;-117.188;2023-03-14T00:54:29;15.48;;;7.25;;
37847;SDS011;23688;33.130;-117.188;2023-03-14T00:56:55;17.65;;;8.43;;
37847;SDS011;23688;33.130;-117.188;2023-03-14T00:59:22;18.23;;;8.02;;
37847;SDS011;23688;33.130;-117.188;2023-03-14T01:01:48;16.88;;;8.45;;
37847;SDS011;23688;33.130;-117.188;2023-03-14T01:04:14;23.90;;;9.13;;
37847;SDS011;23688;33.130;-117.188;2023-03-14T01:06:42;16.00;;;8.73;;
37847;SDS011;23688;33.130;-117.188;2023-03-14T01:09:08;14.25;;;8.30;;
37847;SDS011;23688;33.130;-117.188;2023-03-14T01:11:35;19.80;;;9.43;;
37847;SDS011;23688;33.130;-117.188;2023-03-14T01:14:02;17.38;;;9.23;;
37847;SDS011;23688;33.130;-117.188;2023-03-14T01:16:30;22.67;;;10.70;;
37847;SDS011;23688;33.130;-117.188;2023-03-14T01:18:59;21.60;;;10.27;;
37847;SDS011;23688;33.130;-117.188;2023-03-14T01:21:26;21.98;;;10.02;;
37847;SDS011;23688;33.130;-117.188;2023-03-14T01:23:54;23.38;;;10.75;;
37847;SDS011;23688;33.130;-117.188;2023-03-14T01:26:23;24.43;;;10.80;;
37847;SDS011;23688;33.130;-117.188;2023-03-14T01:28:53;28.17;;;10.05;;
37847;SDS011;23688;33.130;-117.188;2023-03-14T01:31:22;22.55;;;10.35;;
37847;SDS011;23688;33.130;-117.188;2023-03-14T01:33:49;24.90;;;10.48;;
37847;SDS011;23688;33.130;-117.188;2023-03-14T01:36:16;19.88;;;10.10;;
37847;SDS011;23688;33.130;-117.188;2023-03-14T01:38:42;20.48;;;10.13;;
37847;SDS011;23688;33.130;-117.188;2023-03-14T01:41:13;20.70;;;10.57;;
37847;SDS011;23688;33.130;-117.188;2023-03-14T01:43:44;19.38;;;10.20;;
37847;SDS011;23688;33.130;-117.188;2023-03-14T01:46:14;22.05;;;8.75;;
37847;SDS011;23688;33.130;-117.188;2023-03-14T01:49:00;21.10;;;10.82;;
37847;SDS011;23688;33.130;-117.188;2023-03-14T01:51:35;22.60;;;10.15;;
37847;SDS011;23688;33.130;-117.188;2023-03-14T01:54:07;21.65;;;9.57;;
37847;SDS011;23688;33.130;-117.188;2023-03-14T01:56:41;23.98;;;10.15;;
37847;SDS011;23688;33.130;-117.188;2023-03-14T01:59:12;21.75;;;10.68;;
37847;SDS011;23688;33.130;-117.188;2023-03-14T02:01:40;22.23;;;11.70;;
37847;SDS011;23688;33.130;-117.188;2023-03-14T02:04:09;26.33;;;11.23;;
37847;SDS011;23688;33.130;-117.188;2023-03-14T02:09:56;22.05;;;10.90;;
37847;SDS011;23688;33.130;-117.188;2023-03-14T02:12:24;36.90;;;11.00;;
37847;SDS011;23688;33.130;-117.188;2023-03-14T02:14:52;23.67;;;11.27;;
37847;SDS011;23688;33.130;-117.188;2023-03-14T02:17:18;23.02;;;10.82;;
37847;SDS011;23688;33.130;-117.188;2023-03-14T02:19:50;21.70;;;11.00;;
37847;SDS011;23688;33.130;-117.188;2023-03-14T02:22:40;24.75;;;11.40;;
37847;SDS011;23688;33.130;-117.188;2023-03-14T02:27:42;28.20;;;10.98;;
37847;SDS011;23688;33.130;-117.188;2023-03-14T02:30:18;30.98;;;10.45;;
37847;SDS011;23688;33.130;-117.188;2023-03-14T02:32:50;20.13;;;9.07;;
37847;SDS011;23688;33.130;-117.188;2023-03-14T02:35:22;20.63;;;9.43;;
37847;SDS011;23688;33.130;-117.188;2023-03-14T02:38:19;27.20;;;10.07;;
37847;SDS011;23688;33.130;-117.188;2023-03-14T02:40:48;22.00;;;9.52;;
37847;SDS011;23688;33.130;-117.188;2023-03-14T02:43:14;32.75;;;10.43;;
37847;SDS011;23688;33.130;-117.188;2023-03-14T02:45:42;21.05;;;9.43;;
37847;SDS011;23688;33.130;-117.188;2023-03-14T02:48:14;20.95;;;10.10;;
37847;SDS011;23688;33.130;-117.188;2023-03-14T02:50:44;21.05;;;9.65;;
37847;SDS011;23688;33.130;-117.188;2023-03-14T02:53:14;19.15;;;9.05;;
37847;SDS011;23688;33.130;-117.188;2023-03-14T02:55:47;25.25;;;10.52;;
37847;SDS011;23688;33.130;-117.188;2023-03-14T02:58:14;23.48;;;9.75;;
37847;SDS011;23688;33.130;-117.188;2023-03-14T03:00:42;25.65;;;11.02;;
37847;SDS011;23688;33.130;-117.188;2023-03-14T03:03:08;27.35;;;12.27;;
37847;SDS011;23688;33.130;-117.188;2023-03-14T03:05:34;26.33;;;11.30;;
37847;SDS011;23688;33.130;-117.188;2023-03-14T03:08:01;31.65;;;10.68;;
37847;SDS011;23688;33.130;-117.188;2023-03-14T03:10:28;28.45;;;10.85;;
37847;SDS011;23688;33.130;-117.188;2023-03-14T03:12:55;26.48;;;10.88;;
37847;SDS011;23688;33.130;-117.188;2023-03-14T03:15:21;21.02;;;8.88;;
37847;SDS011;23688;33.130;-117.188;2023-03-14T03:17:48;24.63;;;9.95;;
37847;SDS011;23688;33.130;-117.188;2023-03-14T03:20:15;24.52;;;9.27;;
37847;SDS011;23688;33.130;-117.188;2023-03-14T03:22:41;21.40;;;10.70;;
37847;SDS011;23688;33.130;-117.188;2023-03-14T03:25:07;19.77;;;9.75;;
37847;SDS011;23688;33.130;-117.188;2023-03-14T03:27:35;18.15;;;9.50;;
37847;SDS011;23688;33.130;-117.188;2023-03-14T03:30:05;23.02;;;9.68;;
37847;SDS011;23688;33.130;-117.188;2023-03-14T03:32:32;22.75;;;9.27;;
37847;SDS011;23688;33.130;-117.188;2023-03-14T03:34:59;19.08;;;8.55;;
37847;SDS011;23688;33.130;-117.188;2023-03-14T03:37:25;19.30;;;9.13;;
37847;SDS011;23688;33.130;-117.188;2023-03-14T03:39:51;25.20;;;9.27;;
37847;SDS011;23688;33.130;-117.188;2023-03-14T03:42:18;25.77;;;9.52;;
37847;SDS011;23688;33.130;-117.188;2023-03-14T03:44:45;23.55;;;8.20;;
37847;SDS011;23688;33.130;-117.188;2023-03-14T03:47:12;19.13;;;10.05;;
37847;SDS011;23688;33.130;-117.188;2023-03-14T03:49:39;24.65;;;9.85;;
37847;SDS011;23688;33.130;-117.188;2023-03-14T03:52:05;20.23;;;8.50;;
37847;SDS011;23688;33.130;-117.188;2023-03-14T03:54:31;17.92;;;8.73;;
37847;SDS011;23688;33.130;-117.188;2023-03-14T03:56:57;19.88;;;8.77;;
37847;SDS011;23688;33.130;-117.188;2023-03-14T03:59:24;21.15;;;9.82;;
37847;SDS011;23688;33.130;-117.188;2023-03-14T04:01:50;15.18;;;7.82;;
37847;SDS011;23688;33.130;-117.188;2023-03-14T04:04:16;29.52;;;10.93;;
37847;SDS011;23688;33.130;-117.188;2023-03-14T04:06:43;19.98;;;9.30;;
37847;SDS011;23688;33.130;-117.188;2023-03-14T04:09:10;19.80;;;8.95;;
37847;SDS011;23688;33.130;-117.188;2023-03-14T04:11:37;19.38;;;8.18;;
37847;SDS011;23688;33.130;-117.188;2023-03-14T04:14:03;18.85;;;8.02;;
37847;SDS011;23688;33.130;-117.188;2023-03-14T04:16:30;20.92;;;9.38;;
37847;SDS011;23688;33.130;-117.188;2023-03-14T04:19:01;19.33;;;7.90;;
37847;SDS011;23688;33.130;-117.188;2023-03-14T04:21:28;24.00;;;7.72;;
37847;SDS011;23688;33.130;-117.188;2023-03-14T04:23:54;24.90;;;8.25;;
37847;SDS011;23688;33.130;-117.188;2023-03-14T04:26:21;17.98;;;8.52;;
37847;SDS011;23688;33.130;-117.188;2023-03-14T04:28:47;23.20;;;8.90;;
37847;SDS011;23688;33.130;-117.188;2023-03-14T04:31:14;19.70;;;7.90;;
37847;SDS011;23688;33.130;-117.188;2023-03-14T04:33:43;18.73;;;7.53;;
37847;SDS011;23688;33.130;-117.188;2023-03-14T04:36:10;19.58;;;7.93;;
37847;SDS011;23688;33.130;-117.188;2023-03-14T04:38:37;18.95;;;7.50;;
37847;SDS011;23688;33.130;-117.188;2023-03-14T04:41:03;20.83;;;6.75;;
37847;SDS011;23688;33.130;-117.188;2023-03-14T04:43:32;22.50;;;8.32;;
37847;SDS011;23688;33.130;-117.188;2023-03-14T04:45:58;21.05;;;7.55;;
37847;SDS011;23688;33.130;-117.188;2023-03-14T04:48:25;18.75;;;8.43;;
37847;SDS011;23688;33.130;-117.188;2023-03-14T04:50:52;19.00;;;7.57;;
37847;SDS011;23688;33.130;-117.188;2023-03-14T04:53:19;15.82;;;6.57;;
37847;SDS011;23688;33.130;-117.188;2023-03-14T04:55:52;15.65;;;6.60;;
37847;SDS011;23688;33.130;-117.188;2023-03-14T04:58:22;21.35;;;7.20;;
37847;SDS011;23688;33.130;-117.188;2023-03-14T05:00:50;17.55;;;7.10;;
37847;SDS011;23688;33.130;-117.188;2023-03-14T05:03:17;25.63;;;7.63;;
37847;SDS011;23688;33.130;-117.188;2023-03-14T05:05:46;15.13;;;6.95;;
37847;SDS011;23688;33.130;-117.188;2023-03-14T05:08:12;14.32;;;7.22;;
37847;SDS011;23688;33.130;-117.188;2023-03-14T05:10:38;19.70;;;7.30;;
37847;SDS011;23688;33.130;-117.188;2023-03-14T05:13:07;35.40;;;6.78;;
37847;SDS011;23688;33.130;-117.188;2023-03-14T05:15:33;16.25;;;6.85;;
37847;SDS011;23688;33.130;-117.188;2023-03-14T05:18:01;20.65;;;9.00;;
37847;SDS011;23688;33.130;-117.188;2023-03-14T05:20:27;24.52;;;7.20;;
37847;SDS011;23688;33.130;-117.188;2023-03-14T05:22:53;20.15;;;7.28;;
37847;SDS011;23688;33.130;-117.188;2023-03-14T05:25:19;26.35;;;7.95;;
37847;SDS011;23688;33.130;-117.188;2023-03-14T05:27:46;20.20;;;7.47;;
37847;SDS011;23688;33.130;-117.188;2023-03-14T05:30:13;20.45;;;7.80;;
37847;SDS011;23688;33.130;-117.188;2023-03-14T05:32:40;29.42;;;9.35;;
37847;SDS011;23688;33.130;-117.188;2023-03-14T05:35:06;23.08;;;7.13;;
37847;SDS011;23688;33.130;-117.188;2023-03-14T05:37:33;22.80;;;8.68;;
37847;SDS011;23688;33.130;-117.188;2023-03-14T05:39:59;23.63;;;7.80;;
37847;SDS011;23688;33.130;-117.188;2023-03-14T05:42:26;23.48;;;7.03;;
37847;SDS011;23688;33.130;-117.188;2023-03-14T05:44:55;17.33;;;8.30;;
37847;SDS011;23688;33.130;-117.188;2023-03-14T05:47:21;23.98;;;7.72;;
37847;SDS011;23688;33.130;-117.188;2023-03-14T05:49:48;19.30;;;7.72;;
37847;SDS011;23688;33.130;-117.188;2023-03-14T05:52:14;23.17;;;9.73;;
37847;SDS011;23688;33.130;-117.188;2023-03-14T05:54:40;23.23;;;7.93;;
37847;SDS011;23688;33.130;-117.188;2023-03-14T05:57:07;20.92;;;7.88;;
37847;SDS011;23688;33.130;-117.188;2023-03-14T05:59:33;17.48;;;7.07;;
37847;SDS011;23688;33.130;-117.188;2023-03-14T06:01:59;17.98;;;7.88;;
37847;SDS011;23688;33.130;-117.188;2023-03-14T06:04:26;26.98;;;10.23;;
37847;SDS011;23688;33.130;-117.188;2023-03-14T06:06:52;21.13;;;7.97;;
37847;SDS011;23688;33.130;-117.188;2023-03-14T06:09:18;25.08;;;11.40;;
37847;SDS011;23688;33.130;-117.188;2023-03-14T06:14:13;17.02;;;8.30;;
37847;SDS011;23688;33.130;-117.188;2023-03-14T06:16:39;17.27;;;8.00;;
37847;SDS011;23688;33.130;-117.188;2023-03-14T06:19:06;23.92;;;7.47;;
37847;SDS011;23688;33.130;-117.188;2023-03-14T06:21:32;19.92;;;8.40;;
37847;SDS011;23688;33.130;-117.188;2023-03-14T06:24:01;32.55;;;7.85;;
37847;SDS011;23688;33.130;-117.188;2023-03-14T06:26:28;15.45;;;6.43;;
37847;SDS011;23688;33.130;-117.188;2023-03-14T06:28:55;18.98;;;7.45;;
37847;SDS011;23688;33.130;-117.188;2023-03-14T06:31:21;18.95;;;7.00;;
37847;SDS011;23688;33.130;-117.188;2023-03-14T06:33:48;22.17;;;9.57;;
37847;SDS011;23688;33.130;-117.188;2023-03-14T06:36:14;18.98;;;8.55;;
37847;SDS011;23688;33.130;-117.188;2023-03-14T06:38:40;22.65;;;8.40;;
37847;SDS011;23688;33.130;-117.188;2023-03-14T06:41:07;28.77;;;10.10;;
37847;SDS011;23688;33.130;-117.188;2023-03-14T06:43:33;25.13;;;9.20;;
37847;SDS011;23688;33.130;-117.188;2023-03-14T06:46:00;22.83;;;10.15;;
37847;SDS011;23688;33.130;-117.188;2023-03-14T06:48:26;26.55;;;9.85;;
37847;SDS011;23688;33.130;-117.188;2023-03-14T06:50:52;23.25;;;9.85;;
37847;SDS011;23688;33.130;-117.188;2023-03-14T06:53:19;24.63;;;9.40;;
37847;SDS011;23688;33.130;-117.188;2023-03-14T06:55:45;33.90;;;10.13;;
37847;SDS011;23688;33.130;-117.188;2023-03-14T06:58:11;30.38;;;12.73;;
37847;SDS011;23688;33.130;-117.188;2023-03-14T07:00:38;31.75;;;12.43;;
37847;SDS011;23688;33.130;-117.188;2023-03-14T07:03:04;33.50;;;12.73;;
37847;SDS011;23688;33.130;-117.188;2023-03-14T07:05:31;29.10;;;12.82;;
37847;SDS011;23688;33.130;-117.188;2023-03-14T07:07:57;34.08;;;14.55;;
37847;SDS011;23688;33.130;-117.188;2023-03-14T07:10:23;32.20;;;13.13;;
37847;SDS011;23688;33.130;-117.188;2023-03-14T07:12:50;33.75;;;12.10;;
37847;SDS011;23688;33.130;-117.188;2023-03-14T07:15:20;24.40;;;12.95;;
37847;SDS011;23688;33.130;-117.188;2023-03-14T07:17:46;30.92;;;12.40;;
37847;SDS011;23688;33.130;-117.188;2023-03-14T07:22:41;34.35;;;13.68;;
37847;SDS011;23688;33.130;-117.188;2023-03-14T07:25:08;28.60;;;14.88;;
37847;SDS011;23688;33.130;-117.188;2023-03-14T07:27:37;30.88;;;14.63;;
37847;SDS011;23688;33.130;-117.188;2023-03-14T07:30:04;32.80;;;14.77;;
37847;SDS011;23688;33.130;-117.188;2023-03-14T07:32:31;36.67;;;15.90;;
37847;SDS011;23688;33.130;-117.188;2023-03-14T07:34:57;30.48;;;15.70;;
37847;SDS011;23688;33.130;-117.188;2023-03-14T07:37:23;35.75;;;16.00;;
37847;SDS011;23688;33.130;-117.188;2023-03-14T07:39:50;34.55;;;15.93;;
37847;SDS011;23688;33.130;-117.188;2023-03-14T07:42:16;31.33;;;16.83;;
37847;SDS011;23688;33.130;-117.188;2023-03-14T07:44:42;34.33;;;17.95;;
37847;SDS011;23688;33.130;-117.188;2023-03-14T07:47:08;36.38;;;17.42;;
37847;SDS011;23688;33.130;-117.188;2023-03-14T07:49:35;37.45;;;16.77;;
37847;SDS011;23688;33.130;-117.188;2023-03-14T07:52:01;45.55;;;17.17;;
37847;SDS011;23688;33.130;-117.188;2023-03-14T07:54:27;37.80;;;17.85;;
37847;SDS011;23688;33.130;-117.188;2023-03-14T07:56:54;42.35;;;19.30;;
37847;SDS011;23688;33.130;-117.188;2023-03-14T07:59:24;46.03;;;17.60;;
37847;SDS011;23688;33.130;-117.188;2023-03-14T08:01:50;38.42;;;18.05;;
37847;SDS011;23688;33.130;-117.188;2023-03-14T08:04:16;38.03;;;17.67;;
37847;SDS011;23688;33.130;-117.188;2023-03-14T08:06:42;41.22;;;16.73;;
37847;SDS011;23688;33.130;-117.188;2023-03-14T08:09:09;47.05;;;18.45;;
37847;SDS011;23688;33.130;-117.188;2023-03-14T08:11:36;42.20;;;17.33;;
37847;SDS011;23688;33.130;-117.188;2023-03-14T08:14:02;42.28;;;17.73;;
37847;SDS011;23688;33.130;-117.188;2023-03-14T08:16:28;37.78;;;17.83;;
37847;SDS011;23688;33.130;-117.188;2023-03-14T08:18:55;34.90;;;16.55;;
37847;SDS011;23688;33.130;-117.188;2023-03-14T08:21:21;52.78;;;20.00;;
37847;SDS011;23688;33.130;-117.188;2023-03-14T08:23:48;40.40;;;18.15;;
37847;SDS011;23688;33.130;-117.188;2023-03-14T08:26:14;36.15;;;18.08;;
37847;SDS011;23688;33.130;-117.188;2023-03-14T08:28:40;35.63;;;18.27;;
37847;SDS011;23688;33.130;-117.188;2023-03-14T08:31:06;34.70;;;17.25;;
37847;SDS011;23688;33.130;-117.188;2023-03-14T08:33:33;43.20;;;19.35;;
37847;SDS011;23688;33.130;-117.188;2023-03-14T08:36:00;42.20;;;19.52;;
37847;SDS011;23688;33.130;-117.188;2023-03-14T08:38:27;51.92;;;21.08;;
37847;SDS011;23688;33.130;-117.188;2023-03-14T08:41:00;46.35;;;20.25;;
37847;SDS011;23688;33.130;-117.188;2023-03-14T08:43:30;57.22;;;21.23;;
37847;SDS011;23688;33.130;-117.188;2023-03-14T08:46:00;42.65;;;21.90;;
37847;SDS011;23688;33.130;-117.188;2023-03-14T08:48:27;46.10;;;22.15;;
37847;SDS011;23688;33.130;-117.188;2023-03-14T08:50:55;50.22;;;21.77;;
37847;SDS011;23688;33.130;-117.188;2023-03-14T08:53:22;48.25;;;21.65;;
37847;SDS011;23688;33.130;-117.188;2023-03-14T08:55:53;48.53;;;23.05;;
37847;SDS011;23688;33.130;-117.188;2023-03-14T08:58:19;51.90;;;22.35;;
37847;SDS011;23688;33.130;-117.188;2023-03-14T09:00:46;49.90;;;21.73;;
37847;SDS011;23688;33.130;-117.188;2023-03-14T09:03:12;52.70;;;23.42;;
37847;SDS011;23688;33.130;-117.188;2023-03-14T09:05:39;49.13;;;22.30;;
37847;SDS011;23688;33.130;-117.188;2023-03-14T09:08:06;44.90;;;21.60;;
37847;SDS011;23688;33.130;-117.188;2023-03-14T09:10:32;44.80;;;21.45;;
37847;SDS011;23688;33.130;-117.188;2023-03-14T09:12:58;47.67;;;21.00;;
37847;SDS011;23688;33.130;-117.188;2023-03-14T09:15:25;41.72;;;22.15;;
37847;SDS011;23688;33.130;-117.188;2023-03-14T09:17:51;46.47;;;22.55;;
37847;SDS011;23688;33.130;-117.188;2023-03-14T09:20:18;49.72;;;22.55;;
37847;SDS011;23688;33.130;-117.188;2023-03-14T09:22:45;45.65;;;20.80;;
37847;SDS011;23688;33.130;-117.188;2023-03-14T09:25:11;54.08;;;22.42;;
37847;SDS011;23688;33.130;-117.188;2023-03-14T09:27:37;58.63;;;24.00;;
37847;SDS011;23688;33.130;-117.188;2023-03-14T09:30:04;47.30;;;23.52;;
37847;SDS011;23688;33.130;-117.188;2023-03-14T09:32:31;88.13;;;24.33;;
37847;SDS011;23688;33.130;-117.188;2023-03-14T09:34:57;65.30;;;25.13;;
37847;SDS011;23688;33.130;-117.188;2023-03-14T09:37:24;72.80;;;25.20;;
37847;SDS011;23688;33.130;-117.188;2023-03-14T09:39:50;57.13;;;24.38;;
37847;SDS011;23688;33.130;-117.188;2023-03-14T09:42:17;51.65;;;22.98;;
37847;SDS011;23688;33.130;-117.188;2023-03-14T09:44:53;55.53;;;24.27;;
37847;SDS011;23688;33.130;-117.188;2023-03-14T09:47:25;61.08;;;25.73;;
37847;SDS011;23688;33.130;-117.188;2023-03-14T09:49:52;51.22;;;21.85;;
37847;SDS011;23688;33.130;-117.188;2023-03-14T09:52:21;45.00;;;22.23;;
37847;SDS011;23688;33.130;-117.188;2023-03-14T09:54:53;45.35;;;21.67;;
37847;SDS011;23688;33.130;-117.188;2023-03-14T09:57:40;43.80;;;20.45;;
37847;SDS011;23688;33.130;-117.188;2023-03-14T10:00:19;44.88;;;20.25;;
37847;SDS011;23688;33.130;-117.188;2023-03-14T10:03:33;41.70;;;20.67;;
37847;SDS011;23688;33.130;-117.188;2023-03-14T10:05:46;44.85;;;19.60;;
37847;SDS011;23688;33.130;-117.188;2023-03-14T10:08:13;50.45;;;20.45;;
37847;SDS011;23688;33.130;-117.188;2023-03-14T10:10:40;51.45;;;21.45;;
37847;SDS011;23688;33.130;-117.188;2023-03-14T10:13:17;56.13;;;22.85;;
37847;SDS011;23688;33.130;-117.188;2023-03-14T10:15:48;60.22;;;23.48;;
37847;SDS011;23688;33.130;-117.188;2023-03-14T10:18:18;44.30;;;21.08;;
37847;SDS011;23688;33.130;-117.188;2023-03-14T10:20:47;36.78;;;18.35;;
37847;SDS011;23688;33.130;-117.188;2023-03-14T10:25:42;35.63;;;16.65;;
37847;SDS011;23688;33.130;-117.188;2023-03-14T10:28:26;34.42;;;16.27;;
37847;SDS011;23688;33.130;-117.188;2023-03-14T10:30:55;28.08;;;14.88;;
37847;SDS011;23688;33.130;-117.188;2023-03-14T10:33:24;33.95;;;15.35;;
37847;SDS011;23688;33.130;-117.188;2023-03-14T10:35:56;29.30;;;14.80;;
37847;SDS011;23688;33.130;-117.188;2023-03-14T10:38:24;31.75;;;14.63;;
37847;SDS011;23688;33.130;-117.188;2023-03-14T10:40:53;27.27;;;13.82;;
37847;SDS011;23688;33.130;-117.188;2023-03-14T10:43:30;30.45;;;13.05;;
37847;SDS011;23688;33.130;-117.188;2023-03-14T10:46:00;31.90;;;13.20;;
37847;SDS011;23688;33.130;-117.188;2023-03-14T10:48:43;28.77;;;12.57;;
37847;SDS011;23688;33.130;-117.188;2023-03-14T10:51:17;26.50;;;12.47;;
37847;SDS011;23688;33.130;-117.188;2023-03-14T10:56:36;28.45;;;11.18;;
37847;SDS011;23688;33.130;-117.188;2023-03-14T10:59:06;25.77;;;11.55;;
37847;SDS011;23688;33.130;-117.188;2023-03-14T11:07:27;25.20;;;12.57;;
37847;SDS011;23688;33.130;-117.188;2023-03-14T11:18:57;33.47;;;15.73;;
37847;SDS011;23688;33.130;-117.188;2023-03-14T11:35:22;33.05;;;14.32;;
37847;SDS011;23688;33.130;-117.188;2023-03-14T11:38:37;27.10;;;13.10;;
37847;SDS011;23688;33.130;-117.188;2023-03-14T11:40:58;30.08;;;13.57;;
37847;SDS011;23688;33.130;-117.188;2023-03-14T11:43:35;29.90;;;13.13;;
37847;SDS011;23688;33.130;-117.188;2023-03-14T11:46:27;24.80;;;11.82;;
37847;SDS011;23688;33.130;-117.188;2023-03-14T11:49:22;26.38;;;12.05;;
37847;SDS011;23688;33.130;-117.188;2023-03-14T11:51:57;26.90;;;12.13;;
37847;SDS011;23688;33.130;-117.188;2023-03-14T11:57:05;22.77;;;10.82;;
37847;SDS011;23688;33.130;-117.188;2023-03-14T12:10:26;25.00;;;10.57;;
37847;SDS011;23688;33.130;-117.188;2023-03-14T12:12:53;25.73;;;11.15;;
37847;SDS011;23688;33.130;-117.188;2023-03-14T12:15:20;19.75;;;9.52;;
37847;SDS011;23688;33.130;-117.188;2023-03-14T12:17:52;23.02;;;9.73;;
37847;SDS011;23688;33.130;-117.188;2023-03-14T12:20:22;22.65;;;9.80;;
37847;SDS011;23688;33.130;-117.188;2023-03-14T12:22:51;24.67;;;10.30;;
37847;SDS011;23688;33.130;-117.188;2023-03-14T12:25:21;18.40;;;9.85;;
37847;SDS011;23688;33.130;-117.188;2023-03-14T12:30:32;20.15;;;9.57;;
37847;SDS011;23688;33.130;-117.188;2023-03-14T12:33:32;26.17;;;9.88;;
37847;SDS011;23688;33.130;-117.188;2023-03-14T12:36:02;24.75;;;9.45;;
37847;SDS011;23688;33.130;-117.188;2023-03-14T12:41:05;26.67;;;9.80;;
37847;SDS011;23688;33.130;-117.188;2023-03-14T12:43:41;21.80;;;10.65;;
37847;SDS011;23688;33.130;-117.188;2023-03-14T12:46:09;18.42;;;9.80;;
37847;SDS011;23688;33.130;-117.188;2023-03-14T12:48:46;20.80;;;10.30;;
37847;SDS011;23688;33.130;-117.188;2023-03-14T12:51:28;28.08;;;10.77;;
37847;SDS011;23688;33.130;-117.188;2023-03-14T12:59:54;16.08;;;7.68;;
37847;SDS011;23688;33.130;-117.188;2023-03-14T13:02:29;17.48;;;8.43;;
37847;SDS011;23688;33.130;-117.188;2023-03-14T13:05:11;21.17;;;9.15;;
37847;SDS011;23688;33.130;-117.188;2023-03-14T13:10:21;19.00;;;9.55;;
37847;SDS011;23688;33.130;-117.188;2023-03-14T13:15:30;23.27;;;9.85;;
37847;SDS011;23688;33.130;-117.188;2023-03-14T13:18:02;16.48;;;9.57;;
37847;SDS011;23688;33.130;-117.188;2023-03-14T13:20:36;16.20;;;7.53;;
37847;SDS011;23688;33.130;-117.188;2023-03-14T13:23:19;19.08;;;7.10;;
37847;SDS011;23688;33.130;-117.188;2023-03-14T13:25:49;13.88;;;7.40;;
37847;SDS011;23688;33.130;-117.188;2023-03-14T13:28:16;19.90;;;7.22;;
37847;SDS011;23688;33.130;-117.188;2023-03-14T13:30:43;13.35;;;7.30;;
37847;SDS011;23688;33.130;-117.188;2023-03-14T13:33:18;19.98;;;7.05;;
37847;SDS011;23688;33.130;-117.188;2023-03-14T13:35:47;12.35;;;6.05;;
37847;SDS011;23688;33.130;-117.188;2023-03-14T13:38:24;10.40;;;5.07;;
37847;SDS011;23688;33.130;-117.188;2023-03-14T13:40:59;18.20;;;6.03;;
37847;SDS011;23688;33.130;-117.188;2023-03-14T13:43:30;19.75;;;6.05;;
37847;SDS011;23688;33.130;-117.188;2023-03-14T13:46:31;17.88;;;7.03;;
37847;SDS011;23688;33.130;-117.188;2023-03-14T13:51:30;16.98;;;7.15;;
37847;SDS011;23688;33.130;-117.188;2023-03-14T13:53:59;14.35;;;5.85;;
37847;SDS011;23688;33.130;-117.188;2023-03-14T13:56:26;19.92;;;8.50;;
37847;SDS011;23688;33.130;-117.188;2023-03-14T13:58:54;21.48;;;9.23;;
37847;SDS011;23688;33.130;-117.188;2023-03-14T14:01:25;19.02;;;9.65;;
37847;SDS011;23688;33.130;-117.188;2023-03-14T14:03:58;16.95;;;9.15;;
37847;SDS011;23688;33.130;-117.188;2023-03-14T14:06:36;21.58;;;9.13;;
37847;SDS011;23688;33.130;-117.188;2023-03-14T14:09:11;20.63;;;8.48;;
37847;SDS011;23688;33.130;-117.188;2023-03-14T14:17:09;17.95;;;7.35;;
37847;SDS011;23688;33.130;-117.188;2023-03-14T14:19:40;15.23;;;6.10;;
37847;SDS011;23688;33.130;-117.188;2023-03-14T14:22:09;12.85;;;5.43;;
37847;SDS011;23688;33.130;-117.188;2023-03-14T14:24:38;8.07;;;3.28;;
37847;SDS011;23688;33.130;-117.188;2023-03-14T14:27:16;10.35;;;3.80;;
37847;SDS011;23688;33.130;-117.188;2023-03-14T14:29:56;12.30;;;3.38;;
37847;SDS011;23688;33.130;-117.188;2023-03-14T14:32:43;10.45;;;3.15;;
37847;SDS011;23688;33.130;-117.188;2023-03-14T14:35:21;17.13;;;3.72;;
37847;SDS011;23688;33.130;-117.188;2023-03-14T14:37:49;6.95;;;2.75;;
37847;SDS011;23688;33.130;-117.188;2023-03-14T14:40:26;11.88;;;3.00;;
37847;SDS011;23688;33.130;-117.188;2023-03-14T14:42:54;17.48;;;4.10;;
37847;SDS011;23688;33.130;-117.188;2023-03-14T14:45:28;17.23;;;6.68;;
37847;SDS011;23688;33.130;-117.188;2023-03-14T14:47:55;12.23;;;4.60;;
37847;SDS011;23688;33.130;-117.188;2023-03-14T14:50:39;19.20;;;4.95;;
37847;SDS011;23688;33.130;-117.188;2023-03-14T14:53:26;11.15;;;4.55;;
37847;SDS011;23688;33.130;-117.188;2023-03-14T14:56:16;12.95;;;4.05;;
37847;SDS011;23688;33.130;-117.188;2023-03-14T14:58:47;13.45;;;4.63;;
37847;SDS011;23688;33.130;-117.188;2023-03-14T15:03:42;17.95;;;4.40;;
37847;SDS011;23688;33.130;-117.188;2023-03-14T15:06:11;9.55;;;4.72;;
37847;SDS011;23688;33.130;-117.188;2023-03-14T15:08:40;13.82;;;4.80;;
37847;SDS011;23688;33.130;-117.188;2023-03-14T15:11:17;18.60;;;5.90;;
37847;SDS011;23688;33.130;-117.188;2023-03-14T15:13:49;10.30;;;4.68;;
37847;SDS011;23688;33.130;-117.188;2023-03-14T15:16:17;16.70;;;5.63;;
37847;SDS011;23688;33.130;-117.188;2023-03-14T15:18:53;14.32;;;4.53;;
37847;SDS011;23688;33.130;-117.188;2023-03-14T15:21:21;16.00;;;5.85;;
37847;SDS011;23688;33.130;-117.188;2023-03-14T15:23:50;11.38;;;6.10;;
37847;SDS011;23688;33.130;-117.188;2023-03-14T15:26:20;21.25;;;7.47;;
37847;SDS011;23688;33.130;-117.188;2023-03-14T15:28:51;14.50;;;5.55;;